createdAt,value
2023-01-06T00:00:38.702Z,2.1
2023-01-06T00:05:38.688Z,3.0
2023-01-06T00:10:38.694Z,2.8
2023-01-06T00:15:38.742Z,3.3
2023-01-06T00:20:38.732Z,3.0
2023-01-06T00:25:38.732Z,2.7
2023-01-06T00:30:38.732Z,3.4
2023-01-06T00:35:38.754Z,1.8
2023-01-06T00:40:38.766Z,2.6
2023-01-06T00:45:38.771Z,2.0
2023-01-06T00:50:38.776Z,2.4
2023-01-06T00:55:38.800Z,2.4
2023-01-06T01:00:38.792Z,1.3
2023-01-06T01:05:38.807Z,1.2
2023-01-06T01:10:38.805Z,1.7
2023-01-06T01:15:38.870Z,1.9
2023-01-06T01:20:38.854Z,3.0
2023-01-06T01:25:38.841Z,1.5
2023-01-06T01:30:38.867Z,2.2
2023-01-06T01:35:38.863Z,2.7
2023-01-06T01:40:38.863Z,1.1
2023-01-06T01:45:38.877Z,1.5
2023-01-06T01:50:38.900Z,1.6
2023-01-06T01:55:38.939Z,1.3
2023-01-06T02:00:39.070Z,1.3
2023-01-06T02:05:38.924Z,1.5
2023-01-06T02:10:38.932Z,1.4
2023-01-06T02:15:38.968Z,2.0
2023-01-06T02:20:38.957Z,1.3
2023-01-06T02:25:38.965Z,1.3
2023-01-06T02:30:38.973Z,1.9
2023-01-06T02:35:38.980Z,1.1
2023-01-06T02:40:38.986Z,1.5
2023-01-06T02:45:38.999Z,1.1
2023-01-06T02:50:39.013Z,1.5
2023-01-06T02:55:39.016Z,2.0
2023-01-06T03:00:39.027Z,1.4
2023-01-06T03:05:39.036Z,0.9
2023-01-06T03:10:39.050Z,1.8
2023-01-06T03:15:39.049Z,1.2
2023-01-06T03:20:39.065Z,0.5
2023-01-06T03:25:39.083Z,1.2
2023-01-06T03:30:39.088Z,0.8
2023-01-06T03:35:39.097Z,1.3
2023-01-06T03:40:39.109Z,1.1
2023-01-06T03:45:39.113Z,1.6
2023-01-06T03:50:39.123Z,1.3
2023-01-06T03:55:39.138Z,1.4
2023-01-06T04:00:39.190Z,1.7
2023-01-06T04:05:39.159Z,1.6
2023-01-06T04:10:39.183Z,0.9
2023-01-06T04:15:39.184Z,1.5
2023-01-06T04:20:39.186Z,0.8
2023-01-06T04:25:39.191Z,1.1
2023-01-06T04:30:39.219Z,0.8
2023-01-06T04:35:39.217Z,0.7
2023-01-06T04:40:39.311Z,2.0
2023-01-06T04:45:39.272Z,1.3
2023-01-06T04:50:39.244Z,1.3
2023-01-06T04:55:39.266Z,1.4
2023-01-06T05:00:39.286Z,1.0
2023-01-06T05:05:39.283Z,1.4
2023-01-06T05:10:39.287Z,1.2
2023-01-06T05:15:39.291Z,1.0
2023-01-06T05:20:39.302Z,1.2
2023-01-06T05:25:39.314Z,1.0
2023-01-06T05:30:39.334Z,1.0
2023-01-06T05:35:39.337Z,0.9
2023-01-06T05:40:39.347Z,0.9
2023-01-06T05:45:39.392Z,0.9
2023-01-06T05:50:39.366Z,1.5
2023-01-06T05:55:39.386Z,1.9
2023-01-06T06:00:39.388Z,1.1
2023-01-06T06:05:39.401Z,1.1
2023-01-06T06:10:39.420Z,1.5
2023-01-06T06:15:39.411Z,1.1
2023-01-06T06:20:39.436Z,0.9
2023-01-06T06:25:39.429Z,0.7
2023-01-06T06:30:39.440Z,0.9
2023-01-06T06:35:39.472Z,0.6
2023-01-06T06:40:39.462Z,0.8
2023-01-06T06:45:39.590Z,0.7
2023-01-06T06:50:39.497Z,0.7
2023-01-06T06:55:39.500Z,0.8
2023-01-06T07:00:39.515Z,1.2
2023-01-06T07:05:39.502Z,0.4
2023-01-06T07:10:39.529Z,0.8
2023-01-06T07:15:39.639Z,1.2
2023-01-06T07:20:39.543Z,0.9
2023-01-06T07:25:39.559Z,0.7
2023-01-06T07:30:39.571Z,0.6
2023-01-06T07:35:39.568Z,1.7
2023-01-06T07:40:39.591Z,0.7
2023-01-06T07:45:39.589Z,1.4
2023-01-06T07:50:39.605Z,0.6
2023-01-06T07:55:39.622Z,0.5
2023-01-06T08:00:39.632Z,0.8
2023-01-06T08:05:39.632Z,0.6
2023-01-06T08:10:39.654Z,1.0
2023-01-06T08:15:39.685Z,0.8
2023-01-06T08:20:39.664Z,0.5
2023-01-06T08:25:39.673Z,1.0
2023-01-06T08:30:39.696Z,0.5
2023-01-06T08:35:39.692Z,0.5
2023-01-06T08:40:39.848Z,0.7
2023-01-06T08:45:39.712Z,0.9
2023-01-06T08:50:39.727Z,0.5
2023-01-06T08:55:39.722Z,0.5
2023-01-06T09:00:39.734Z,1.0
2023-01-06T09:05:39.806Z,1.0
2023-01-06T09:10:39.746Z,0.4
2023-01-06T09:15:39.834Z,0.8
2023-01-06T09:20:39.785Z,0.8
2023-01-06T09:25:39.884Z,1.5
2023-01-06T09:30:39.801Z,0.3
2023-01-06T09:35:39.828Z,1.0
2023-01-06T09:40:39.812Z,1.0
2023-01-06T09:45:39.834Z,0.5
2023-01-06T09:50:39.828Z,0.3
2023-01-06T09:55:39.927Z,0.4
2023-01-06T10:00:39.858Z,0.6
2023-01-06T10:05:39.868Z,0.5
2023-01-06T10:10:39.865Z,1.3
2023-01-06T10:15:39.894Z,1.1
2023-01-06T10:20:39.891Z,0.5
2023-01-06T10:25:39.923Z,1.0
2023-01-06T10:30:43.913Z,0.8
2023-01-06T10:35:39.930Z,1.0
2023-01-06T10:40:39.931Z,3.0
2023-01-06T10:45:39.937Z,1.8
2023-01-06T10:50:39.958Z,4.9
2023-01-06T10:55:39.961Z,1.6
2023-01-06T11:00:40.147Z,2.4
2023-01-06T11:05:39.994Z,3.2
2023-01-06T11:10:40.006Z,7.4
2023-01-06T11:15:40.008Z,2.7
2023-01-06T11:20:40.014Z,3.1
2023-01-06T11:25:40.032Z,5.4
2023-01-06T11:30:40.025Z,2.8
2023-01-06T11:35:40.055Z,3.8
2023-01-06T11:40:40.055Z,3.1
2023-01-06T11:45:40.187Z,3.1
2023-01-06T11:50:40.070Z,3.1
2023-01-06T11:55:40.088Z,1.9
2023-01-06T12:00:40.086Z,5.1
2023-01-06T12:05:40.102Z,2.8
2023-01-06T12:10:40.102Z,1.8
2023-01-06T12:15:40.111Z,3.0
2023-01-06T12:20:40.132Z,1.9
2023-01-06T12:25:40.136Z,3.2
2023-01-06T12:30:40.149Z,3.5
2023-01-06T12:35:40.175Z,3.9
2023-01-06T12:40:40.176Z,1.9
2023-01-06T12:45:43.461Z,1.6
2023-01-06T12:50:40.199Z,2.1
2023-01-06T12:55:40.210Z,1.5
2023-01-06T13:00:40.200Z,2.8
2023-01-06T13:05:40.230Z,1.5
2023-01-06T13:10:40.232Z,2.3
2023-01-06T13:15:40.235Z,1.8
2023-01-06T13:20:40.268Z,2.9
2023-01-06T13:25:40.251Z,1.6
2023-01-06T13:30:40.331Z,1.4
2023-01-06T13:35:40.282Z,2.0
2023-01-06T13:40:40.283Z,1.6
2023-01-06T13:45:40.369Z,1.5
2023-01-06T13:50:40.298Z,1.6
2023-01-06T13:55:40.312Z,1.5
2023-01-06T14:00:40.322Z,1.7
2023-01-06T14:05:40.330Z,2.3
2023-01-06T14:10:40.343Z,2.2
2023-01-06T14:15:40.380Z,2.0
2023-01-06T14:20:40.355Z,3.8
2023-01-06T14:25:40.369Z,1.9
2023-01-06T14:30:40.419Z,2.2
2023-01-06T14:35:40.396Z,1.3
2023-01-06T14:40:40.400Z,4.1
2023-01-06T14:45:40.414Z,1.5
2023-01-06T14:50:47.162Z,1.8
2023-01-06T14:55:40.435Z,3.2
2023-01-06T15:00:40.552Z,2.5
2023-01-06T15:05:40.459Z,2.2
2023-01-06T15:10:40.466Z,1.4
2023-01-06T15:15:40.512Z,3.1
2023-01-06T15:20:40.486Z,1.8
2023-01-06T15:25:40.484Z,1.8
2023-01-06T15:30:40.541Z,2.3
2023-01-06T15:35:40.510Z,1.5
2023-01-06T15:40:40.522Z,1.8
2023-01-06T15:45:40.530Z,1.9
2023-01-06T15:50:40.540Z,1.6
2023-01-06T15:55:40.552Z,2.7
2023-01-06T16:00:40.567Z,1.9
2023-01-06T16:05:40.564Z,2.9
2023-01-06T16:10:40.578Z,1.5
2023-01-06T16:15:40.609Z,1.4
2023-01-06T16:20:40.613Z,3.3
2023-01-06T16:25:40.606Z,1.5
2023-01-06T16:30:40.615Z,1.6
2023-01-06T16:35:40.623Z,2.1
2023-01-06T16:40:40.635Z,1.3
2023-01-06T16:45:40.638Z,1.6
2023-01-06T16:50:40.749Z,1.7
2023-01-06T16:55:40.670Z,2.9
2023-01-06T17:00:40.679Z,2.9
2023-01-06T17:05:40.685Z,5.5
2023-01-06T17:10:40.703Z,3.5
2023-01-06T17:15:40.796Z,5.3
2023-01-06T17:20:40.731Z,5.7
2023-01-06T17:25:43.280Z,7.4
2023-01-06T17:30:40.743Z,7.8
2023-01-06T17:35:40.755Z,9.2
2023-01-06T17:40:40.756Z,7.9
2023-01-06T17:45:40.776Z,10.9
2023-01-06T17:50:40.792Z,9.6
2023-01-06T17:55:40.794Z,14.8
2023-01-06T18:00:40.877Z,12.5
2023-01-06T18:05:40.806Z,12.2
2023-01-06T18:10:40.820Z,14.1
2023-01-06T18:15:40.827Z,12.5
2023-01-06T18:20:40.854Z,12.5
2023-01-06T18:25:40.844Z,12.0
2023-01-06T18:30:40.860Z,13.5
2023-01-06T18:35:40.872Z,15.4
2023-01-06T18:40:40.872Z,13.7
2023-01-06T18:45:40.926Z,9.1
2023-01-06T18:50:40.967Z,14.7
2023-01-06T18:55:40.900Z,13.4
2023-01-06T19:00:41.039Z,12.8
2023-01-06T19:05:41.024Z,11.8
2023-01-06T19:10:40.952Z,12.2
2023-01-06T19:15:40.949Z,13.1
2023-01-06T19:20:40.959Z,12.4
2023-01-06T19:25:40.962Z,12.5
2023-01-06T19:30:40.983Z,14.5
2023-01-06T19:35:40.983Z,9.5
2023-01-06T19:40:41.014Z,11.1
2023-01-06T19:45:41.059Z,11.9
2023-01-06T19:50:41.035Z,8.7
2023-01-06T19:55:41.032Z,9.9
2023-01-06T20:00:41.075Z,9.8
2023-01-06T20:05:41.050Z,9.0
2023-01-06T20:10:41.050Z,8.8
2023-01-06T20:15:41.067Z,7.1
2023-01-06T20:20:41.072Z,7.9
2023-01-06T20:25:41.094Z,8.5
2023-01-06T20:30:41.111Z,9.1
2023-01-06T20:35:41.116Z,8.9
2023-01-06T20:40:41.116Z,6.7
2023-01-06T20:45:41.175Z,7.8
2023-01-06T20:50:41.130Z,8.2
2023-01-06T20:55:41.144Z,7.6
2023-01-06T21:00:41.163Z,6.9
2023-01-06T21:05:41.187Z,7.9
2023-01-06T21:10:41.173Z,7.1
2023-01-06T21:15:41.176Z,6.8
2023-01-06T21:20:41.309Z,5.5
2023-01-06T21:25:41.200Z,6.0
2023-01-06T21:30:41.300Z,4.8
2023-01-06T21:35:41.238Z,5.1
2023-01-06T21:40:41.256Z,4.7
2023-01-06T21:45:41.304Z,4.8
2023-01-06T21:50:41.255Z,5.7
2023-01-06T21:55:41.295Z,3.9
2023-01-06T22:00:41.272Z,3.8
2023-01-06T22:05:41.279Z,3.6
2023-01-06T22:10:41.463Z,4.5
2023-01-06T22:15:41.303Z,4.0
2023-01-06T22:20:41.302Z,4.3
2023-01-06T22:25:41.332Z,3.4
2023-01-06T22:30:41.396Z,4.0
2023-01-06T22:35:41.361Z,3.9
2023-01-06T22:40:41.409Z,3.6
2023-01-06T22:45:41.354Z,3.7
2023-01-06T22:50:41.364Z,2.8
2023-01-06T22:55:41.386Z,2.9
2023-01-06T23:00:41.397Z,3.1
2023-01-06T23:05:41.499Z,3.3
2023-01-06T23:10:41.429Z,3.0
2023-01-06T23:15:41.450Z,3.7
2023-01-06T23:20:41.428Z,2.4
2023-01-06T23:25:41.443Z,2.4
2023-01-06T23:30:41.444Z,2.8
2023-01-06T23:35:41.459Z,4.0
2023-01-06T23:40:41.475Z,2.4
2023-01-06T23:45:41.490Z,4.1
2023-01-06T23:50:41.495Z,1.7
2023-01-06T23:55:41.507Z,2.8
